sensor_id;sensor_type;location;lat;lon;timestamp;temperature;humidity
6307;DHT22;3186;54.062;9.962;2023-07-13T00:00:19;19.40;97.10
6307;DHT22;3186;54.062;9.962;2023-07-13T00:02:46;19.40;97.40
6307;DHT22;3186;54.062;9.962;2023-07-13T00:05:11;19.40;97.20
6307;DHT22;3186;54.062;9.962;2023-07-13T00:07:37;19.40;98.20
6307;DHT22;3186;54.062;9.962;2023-07-13T00:10:04;19.30;99.30
6307;DHT22;3186;54.062;9.962;2023-07-13T00:12:33;19.20;99.70
6307;DHT22;3186;54.062;9.962;2023-07-13T00:15:02;19.20;99.90
6307;DHT22;3186;54.062;9.962;2023-07-13T00:17:28;19.20;99.90
6307;DHT22;3186;54.062;9.962;2023-07-13T00:19:56;19.20;99.90
6307;DHT22;3186;54.062;9.962;2023-07-13T00:22:23;19.20;99.90
6307;DHT22;3186;54.062;9.962;2023-07-13T00:24:52;19.10;99.90
6307;DHT22;3186;54.062;9.962;2023-07-13T00:27:18;19.10;99.90
6307;DHT22;3186;54.062;9.962;2023-07-13T00:29:44;18.90;99.90
6307;DHT22;3186;54.062;9.962;2023-07-13T00:32:10;19.10;99.90
6307;DHT22;3186;54.062;9.962;2023-07-13T00:34:38;19.00;99.90
6307;DHT22;3186;54.062;9.962;2023-07-13T00:37:04;19.20;99.90
6307;DHT22;3186;54.062;9.962;2023-07-13T00:39:33;19.00;99.90
6307;DHT22;3186;54.062;9.962;2023-07-13T00:42:00;19.00;99.90
6307;DHT22;3186;54.062;9.962;2023-07-13T00:44:26;19.00;99.90
6307;DHT22;3186;54.062;9.962;2023-07-13T00:46:53;19.00;99.90
6307;DHT22;3186;54.062;9.962;2023-07-13T00:49:24;18.90;99.90
6307;DHT22;3186;54.062;9.962;2023-07-13T00:51:57;18.90;99.90
6307;DHT22;3186;54.062;9.962;2023-07-13T00:54:31;18.90;99.90
6307;DHT22;3186;54.062;9.962;2023-07-13T00:57:02;18.90;99.90
6307;DHT22;3186;54.062;9.962;2023-07-13T00:59:29;18.90;99.90
6307;DHT22;3186;54.062;9.962;2023-07-13T01:01:56;18.80;99.90
6307;DHT22;3186;54.062;9.962;2023-07-13T01:04:24;18.80;99.90
6307;DHT22;3186;54.062;9.962;2023-07-13T01:06:51;18.70;99.90
6307;DHT22;3186;54.062;9.962;2023-07-13T01:09:17;18.70;99.90
6307;DHT22;3186;54.062;9.962;2023-07-13T01:11:43;18.70;99.90
6307;DHT22;3186;54.062;9.962;2023-07-13T01:14:10;18.70;99.90
6307;DHT22;3186;54.062;9.962;2023-07-13T01:16:37;18.60;99.90
6307;DHT22;3186;54.062;9.962;2023-07-13T01:19:56;18.60;99.90
6307;DHT22;3186;54.062;9.962;2023-07-13T01:22:13;18.60;99.90
6307;DHT22;3186;54.062;9.962;2023-07-13T01:24:42;18.60;99.90
6307;DHT22;3186;54.062;9.962;2023-07-13T01:27:10;18.60;99.90
6307;DHT22;3186;54.062;9.962;2023-07-13T01:29:40;18.50;99.90
6307;DHT22;3186;54.062;9.962;2023-07-13T01:32:16;18.50;99.90
6307;DHT22;3186;54.062;9.962;2023-07-13T01:34:45;18.50;99.90
6307;DHT22;3186;54.062;9.962;2023-07-13T01:37:13;18.50;99.90
6307;DHT22;3186;54.062;9.962;2023-07-13T01:39:39;18.50;99.90
6307;DHT22;3186;54.062;9.962;2023-07-13T01:42:05;18.50;99.90
6307;DHT22;3186;54.062;9.962;2023-07-13T01:44:31;18.40;99.90
6307;DHT22;3186;54.062;9.962;2023-07-13T01:46:57;18.40;99.90
6307;DHT22;3186;54.062;9.962;2023-07-13T01:49:23;18.40;99.90
6307;DHT22;3186;54.062;9.962;2023-07-13T01:51:49;18.40;99.90
6307;DHT22;3186;54.062;9.962;2023-07-13T01:54:15;18.40;99.90
6307;DHT22;3186;54.062;9.962;2023-07-13T01:56:42;18.30;99.90
6307;DHT22;3186;54.062;9.962;2023-07-13T01:59:09;18.30;99.90
6307;DHT22;3186;54.062;9.962;2023-07-13T02:01:35;18.30;99.90
6307;DHT22;3186;54.062;9.962;2023-07-13T02:04:01;18.30;99.90
6307;DHT22;3186;54.062;9.962;2023-07-13T02:06:30;18.30;99.90
6307;DHT22;3186;54.062;9.962;2023-07-13T02:08:55;18.30;99.90
6307;DHT22;3186;54.062;9.962;2023-07-13T02:11:21;18.20;99.90
6307;DHT22;3186;54.062;9.962;2023-07-13T02:13:47;18.20;99.90
6307;DHT22;3186;54.062;9.962;2023-07-13T02:16:14;18.20;99.90
6307;DHT22;3186;54.062;9.962;2023-07-13T02:18:40;18.20;99.90
6307;DHT22;3186;54.062;9.962;2023-07-13T02:21:06;18.20;99.90
6307;DHT22;3186;54.062;9.962;2023-07-13T02:23:32;18.10;99.90
6307;DHT22;3186;54.062;9.962;2023-07-13T02:25:59;18.10;99.90
6307;DHT22;3186;54.062;9.962;2023-07-13T02:28:27;18.10;99.90
6307;DHT22;3186;54.062;9.962;2023-07-13T02:30:53;18.00;99.90
6307;DHT22;3186;54.062;9.962;2023-07-13T02:35:47;18.00;99.90
6307;DHT22;3186;54.062;9.962;2023-07-13T02:38:13;18.50;99.90
6307;DHT22;3186;54.062;9.962;2023-07-13T02:40:39;18.00;99.90
6307;DHT22;3186;54.062;9.962;2023-07-13T02:43:05;17.90;99.90
6307;DHT22;3186;54.062;9.962;2023-07-13T02:45:31;17.90;99.90
6307;DHT22;3186;54.062;9.962;2023-07-13T02:47:56;18.20;99.90
6307;DHT22;3186;54.062;9.962;2023-07-13T02:50:22;17.90;99.90
6307;DHT22;3186;54.062;9.962;2023-07-13T02:52:48;17.80;99.90
6307;DHT22;3186;54.062;9.962;2023-07-13T02:55:13;18.50;99.90
6307;DHT22;3186;54.062;9.962;2023-07-13T02:57:40;17.80;99.90
6307;DHT22;3186;54.062;9.962;2023-07-13T03:00:07;17.70;99.90
6307;DHT22;3186;54.062;9.962;2023-07-13T03:02:34;17.70;99.90
6307;DHT22;3186;54.062;9.962;2023-07-13T03:05:01;17.70;99.90
6307;DHT22;3186;54.062;9.962;2023-07-13T03:07:27;17.60;99.90
6307;DHT22;3186;54.062;9.962;2023-07-13T03:09:56;17.60;99.90
6307;DHT22;3186;54.062;9.962;2023-07-13T03:12:25;17.60;99.90
6307;DHT22;3186;54.062;9.962;2023-07-13T03:14:51;17.70;99.90
6307;DHT22;3186;54.062;9.962;2023-07-13T03:17:17;17.60;99.90
6307;DHT22;3186;54.062;9.962;2023-07-13T03:19:43;17.40;99.90
6307;DHT22;3186;54.062;9.962;2023-07-13T03:22:10;17.50;99.90
6307;DHT22;3186;54.062;9.962;2023-07-13T03:24:38;17.80;99.90
6307;DHT22;3186;54.062;9.962;2023-07-13T03:27:05;17.40;99.90
6307;DHT22;3186;54.062;9.962;2023-07-13T03:29:32;17.50;99.90
6307;DHT22;3186;54.062;9.962;2023-07-13T03:31:58;17.40;99.90
6307;DHT22;3186;54.062;9.962;2023-07-13T03:34:24;17.40;99.90
6307;DHT22;3186;54.062;9.962;2023-07-13T03:36:50;17.40;99.90
6307;DHT22;3186;54.062;9.962;2023-07-13T03:39:16;17.50;99.90
6307;DHT22;3186;54.062;9.962;2023-07-13T03:41:47;17.40;99.90
6307;DHT22;3186;54.062;9.962;2023-07-13T03:44:16;17.40;99.90
6307;DHT22;3186;54.062;9.962;2023-07-13T03:46:42;17.30;99.90
6307;DHT22;3186;54.062;9.962;2023-07-13T03:49:08;17.30;99.90
6307;DHT22;3186;54.062;9.962;2023-07-13T03:51:34;17.40;99.90
6307;DHT22;3186;54.062;9.962;2023-07-13T03:54:00;17.30;99.90
6307;DHT22;3186;54.062;9.962;2023-07-13T03:56:26;17.20;99.90
6307;DHT22;3186;54.062;9.962;2023-07-13T03:58:52;17.30;99.90
6307;DHT22;3186;54.062;9.962;2023-07-13T04:01:21;17.30;99.90
6307;DHT22;3186;54.062;9.962;2023-07-13T04:03:47;17.30;99.90
6307;DHT22;3186;54.062;9.962;2023-07-13T04:06:20;17.50;99.90
6307;DHT22;3186;54.062;9.962;2023-07-13T04:08:52;17.20;99.90
6307;DHT22;3186;54.062;9.962;2023-07-13T04:11:19;17.30;99.90
6307;DHT22;3186;54.062;9.962;2023-07-13T04:13:46;17.20;99.90
6307;DHT22;3186;54.062;9.962;2023-07-13T04:16:13;17.40;99.90
6307;DHT22;3186;54.062;9.962;2023-07-13T04:18:39;17.30;99.90
6307;DHT22;3186;54.062;9.962;2023-07-13T04:21:05;17.20;99.90
6307;DHT22;3186;54.062;9.962;2023-07-13T04:23:31;17.20;99.90
6307;DHT22;3186;54.062;9.962;2023-07-13T04:25:56;17.30;99.90
6307;DHT22;3186;54.062;9.962;2023-07-13T04:28:23;17.20;99.90
6307;DHT22;3186;54.062;9.962;2023-07-13T04:30:50;17.20;99.90
6307;DHT22;3186;54.062;9.962;2023-07-13T04:33:16;17.10;99.90
6307;DHT22;3186;54.062;9.962;2023-07-13T04:35:43;17.10;99.90
6307;DHT22;3186;54.062;9.962;2023-07-13T04:38:09;17.20;99.90
6307;DHT22;3186;54.062;9.962;2023-07-13T04:40:37;17.20;99.90
6307;DHT22;3186;54.062;9.962;2023-07-13T04:43:03;17.20;99.90
6307;DHT22;3186;54.062;9.962;2023-07-13T04:45:28;17.60;99.90
6307;DHT22;3186;54.062;9.962;2023-07-13T04:47:54;17.20;99.90
6307;DHT22;3186;54.062;9.962;2023-07-13T04:50:20;17.20;99.90
6307;DHT22;3186;54.062;9.962;2023-07-13T04:52:51;17.20;99.90
6307;DHT22;3186;54.062;9.962;2023-07-13T04:55:18;17.30;99.90
6307;DHT22;3186;54.062;9.962;2023-07-13T04:57:44;17.40;99.90
6307;DHT22;3186;54.062;9.962;2023-07-13T05:00:11;17.20;99.90
6307;DHT22;3186;54.062;9.962;2023-07-13T05:02:38;17.20;99.90
6307;DHT22;3186;54.062;9.962;2023-07-13T05:05:04;17.20;99.90
6307;DHT22;3186;54.062;9.962;2023-07-13T05:07:30;17.20;99.90
6307;DHT22;3186;54.062;9.962;2023-07-13T05:09:58;17.60;99.90
6307;DHT22;3186;54.062;9.962;2023-07-13T05:12:25;17.30;99.90
6307;DHT22;3186;54.062;9.962;2023-07-13T05:14:51;17.40;99.90
6307;DHT22;3186;54.062;9.962;2023-07-13T05:17:16;17.30;99.90
6307;DHT22;3186;54.062;9.962;2023-07-13T05:19:42;17.60;99.90
6307;DHT22;3186;54.062;9.962;2023-07-13T05:22:08;17.30;99.90
6307;DHT22;3186;54.062;9.962;2023-07-13T05:24:34;17.40;99.90
6307;DHT22;3186;54.062;9.962;2023-07-13T05:27:00;18.00;99.90
6307;DHT22;3186;54.062;9.962;2023-07-13T05:29:25;17.60;99.90
6307;DHT22;3186;54.062;9.962;2023-07-13T05:31:51;17.50;99.90
6307;DHT22;3186;54.062;9.962;2023-07-13T05:34:17;17.60;99.90
6307;DHT22;3186;54.062;9.962;2023-07-13T05:36:43;17.60;99.90
6307;DHT22;3186;54.062;9.962;2023-07-13T05:39:09;17.60;99.90
6307;DHT22;3186;54.062;9.962;2023-07-13T05:41:35;17.60;99.90
6307;DHT22;3186;54.062;9.962;2023-07-13T05:44:01;17.70;99.90
6307;DHT22;3186;54.062;9.962;2023-07-13T05:46:27;17.70;99.90
6307;DHT22;3186;54.062;9.962;2023-07-13T05:48:52;17.80;99.90
6307;DHT22;3186;54.062;9.962;2023-07-13T05:51:18;17.80;99.90
6307;DHT22;3186;54.062;9.962;2023-07-13T05:53:44;17.80;99.90
6307;DHT22;3186;54.062;9.962;2023-07-13T05:56:10;17.80;99.90
6307;DHT22;3186;54.062;9.962;2023-07-13T05:58:35;18.10;99.90
6307;DHT22;3186;54.062;9.962;2023-07-13T06:01:07;18.00;99.90
6307;DHT22;3186;54.062;9.962;2023-07-13T06:03:34;17.90;99.90
6307;DHT22;3186;54.062;9.962;2023-07-13T06:06:00;17.90;99.90
6307;DHT22;3186;54.062;9.962;2023-07-13T06:08:26;18.00;99.90
6307;DHT22;3186;54.062;9.962;2023-07-13T06:10:52;18.00;99.90
6307;DHT22;3186;54.062;9.962;2023-07-13T06:13:18;18.20;99.90
6307;DHT22;3186;54.062;9.962;2023-07-13T06:15:51;18.20;99.90
6307;DHT22;3186;54.062;9.962;2023-07-13T06:18:16;18.20;99.90
6307;DHT22;3186;54.062;9.962;2023-07-13T06:20:42;18.30;99.90
6307;DHT22;3186;54.062;9.962;2023-07-13T06:23:08;18.30;99.90
6307;DHT22;3186;54.062;9.962;2023-07-13T06:25:34;18.30;99.90
6307;DHT22;3186;54.062;9.962;2023-07-13T06:27:59;19.20;99.90
6307;DHT22;3186;54.062;9.962;2023-07-13T06:30:26;18.50;99.90
6307;DHT22;3186;54.062;9.962;2023-07-13T06:32:52;18.40;99.90
6307;DHT22;3186;54.062;9.962;2023-07-13T06:35:18;19.10;99.90
6307;DHT22;3186;54.062;9.962;2023-07-13T06:37:44;18.70;99.90
6307;DHT22;3186;54.062;9.962;2023-07-13T06:40:10;18.80;99.90
6307;DHT22;3186;54.062;9.962;2023-07-13T06:42:36;18.90;99.90
6307;DHT22;3186;54.062;9.962;2023-07-13T06:45:02;19.00;99.90
6307;DHT22;3186;54.062;9.962;2023-07-13T06:47:28;18.90;99.90
6307;DHT22;3186;54.062;9.962;2023-07-13T06:49:53;19.50;99.90
6307;DHT22;3186;54.062;9.962;2023-07-13T06:52:19;18.90;99.90
6307;DHT22;3186;54.062;9.962;2023-07-13T06:54:45;19.20;99.90
6307;DHT22;3186;54.062;9.962;2023-07-13T06:57:11;19.40;99.90
6307;DHT22;3186;54.062;9.962;2023-07-13T06:59:37;19.90;99.90
6307;DHT22;3186;54.062;9.962;2023-07-13T07:02:02;19.90;99.90
6307;DHT22;3186;54.062;9.962;2023-07-13T07:04:28;19.90;99.90
6307;DHT22;3186;54.062;9.962;2023-07-13T07:06:54;20.10;99.90
6307;DHT22;3186;54.062;9.962;2023-07-13T07:09:19;20.70;99.90
6307;DHT22;3186;54.062;9.962;2023-07-13T07:11:45;20.20;99.90
6307;DHT22;3186;54.062;9.962;2023-07-13T07:14:11;20.40;99.90
6307;DHT22;3186;54.062;9.962;2023-07-13T07:16:36;20.60;99.90
6307;DHT22;3186;54.062;9.962;2023-07-13T07:19:02;20.60;99.90
6307;DHT22;3186;54.062;9.962;2023-07-13T07:21:28;20.30;99.90
6307;DHT22;3186;54.062;9.962;2023-07-13T07:23:53;20.90;99.90
6307;DHT22;3186;54.062;9.962;2023-07-13T07:26:19;20.80;99.90
6307;DHT22;3186;54.062;9.962;2023-07-13T07:28:45;21.00;99.90
6307;DHT22;3186;54.062;9.962;2023-07-13T07:31:11;21.10;99.90
6307;DHT22;3186;54.062;9.962;2023-07-13T07:33:36;21.10;99.90
6307;DHT22;3186;54.062;9.962;2023-07-13T07:36:04;21.10;99.90
6307;DHT22;3186;54.062;9.962;2023-07-13T07:38:30;21.40;99.90
6307;DHT22;3186;54.062;9.962;2023-07-13T07:40:55;21.80;99.90
6307;DHT22;3186;54.062;9.962;2023-07-13T07:43:21;21.50;99.90
6307;DHT22;3186;54.062;9.962;2023-07-13T07:45:47;21.60;99.90
6307;DHT22;3186;54.062;9.962;2023-07-13T07:48:12;21.80;99.90
6307;DHT22;3186;54.062;9.962;2023-07-13T07:50:38;21.80;99.90
6307;DHT22;3186;54.062;9.962;2023-07-13T07:53:05;22.10;99.90
6307;DHT22;3186;54.062;9.962;2023-07-13T07:55:33;22.10;99.90
6307;DHT22;3186;54.062;9.962;2023-07-13T07:58:00;22.40;99.90
6307;DHT22;3186;54.062;9.962;2023-07-13T08:00:26;22.80;99.90
6307;DHT22;3186;54.062;9.962;2023-07-13T08:02:53;23.20;99.90
6307;DHT22;3186;54.062;9.962;2023-07-13T08:05:19;22.90;99.90
6307;DHT22;3186;54.062;9.962;2023-07-13T08:07:44;23.10;99.90
6307;DHT22;3186;54.062;9.962;2023-07-13T08:10:10;23.30;99.90
6307;DHT22;3186;54.062;9.962;2023-07-13T08:12:39;23.50;99.90
6307;DHT22;3186;54.062;9.962;2023-07-13T08:15:10;23.60;99.90
6307;DHT22;3186;54.062;9.962;2023-07-13T08:17:36;23.60;99.90
6307;DHT22;3186;54.062;9.962;2023-07-13T08:20:02;23.70;98.70
6307;DHT22;3186;54.062;9.962;2023-07-13T08:22:27;24.20;97.60
6307;DHT22;3186;54.062;9.962;2023-07-13T08:24:53;24.10;95.70
6307;DHT22;3186;54.062;9.962;2023-07-13T08:27:23;23.90;96.80
6307;DHT22;3186;54.062;9.962;2023-07-13T08:29:49;23.90;94.90
6307;DHT22;3186;54.062;9.962;2023-07-13T08:32:18;24.00;97.90
6307;DHT22;3186;54.062;9.962;2023-07-13T08:34:44;24.20;90.40
6307;DHT22;3186;54.062;9.962;2023-07-13T08:37:10;24.30;92.00
6307;DHT22;3186;54.062;9.962;2023-07-13T08:39:36;24.50;94.30
6307;DHT22;3186;54.062;9.962;2023-07-13T08:42:20;24.60;92.00
6307;DHT22;3186;54.062;9.962;2023-07-13T08:44:56;24.80;82.30
6307;DHT22;3186;54.062;9.962;2023-07-13T08:47:23;25.20;80.10
6307;DHT22;3186;54.062;9.962;2023-07-13T08:49:50;25.10;78.20
6307;DHT22;3186;54.062;9.962;2023-07-13T08:52:41;25.00;86.30
6307;DHT22;3186;54.062;9.962;2023-07-13T08:55:16;25.20;82.20
6307;DHT22;3186;54.062;9.962;2023-07-13T08:57:45;25.30;89.30
6307;DHT22;3186;54.062;9.962;2023-07-13T09:00:12;25.40;79.70
6307;DHT22;3186;54.062;9.962;2023-07-13T09:02:57;25.30;82.50
6307;DHT22;3186;54.062;9.962;2023-07-13T09:05:36;25.30;78.10
6307;DHT22;3186;54.062;9.962;2023-07-13T09:11:10;25.20;77.70
6307;DHT22;3186;54.062;9.962;2023-07-13T09:13:54;25.50;72.70
6307;DHT22;3186;54.062;9.962;2023-07-13T09:16:23;25.50;75.40
6307;DHT22;3186;54.062;9.962;2023-07-13T09:18:51;25.80;70.90
6307;DHT22;3186;54.062;9.962;2023-07-13T09:23:59;26.10;63.90
6307;DHT22;3186;54.062;9.962;2023-07-13T09:26:28;26.30;61.70
6307;DHT22;3186;54.062;9.962;2023-07-13T09:29:22;26.10;49.30
6307;DHT22;3186;54.062;9.962;2023-07-13T09:31:55;26.30;57.20
6307;DHT22;3186;54.062;9.962;2023-07-13T09:34:25;26.30;63.40
6307;DHT22;3186;54.062;9.962;2023-07-13T09:36:50;26.20;53.40
6307;DHT22;3186;54.062;9.962;2023-07-13T09:44:38;26.50;78.90
6307;DHT22;3186;54.062;9.962;2023-07-13T09:47:16;26.20;71.60
6307;DHT22;3186;54.062;9.962;2023-07-13T09:49:42;25.80;68.20
6307;DHT22;3186;54.062;9.962;2023-07-13T09:52:15;26.10;75.00
6307;DHT22;3186;54.062;9.962;2023-07-13T09:54:46;26.30;61.40
6307;DHT22;3186;54.062;9.962;2023-07-13T09:57:19;26.30;63.50
6307;DHT22;3186;54.062;9.962;2023-07-13T09:59:50;26.60;51.30
6307;DHT22;3186;54.062;9.962;2023-07-13T10:05:01;26.70;34.10
6307;DHT22;3186;54.062;9.962;2023-07-13T10:07:30;26.20;44.70
6307;DHT22;3186;54.062;9.962;2023-07-13T10:10:00;25.90;50.20
6307;DHT22;3186;54.062;9.962;2023-07-13T10:12:28;25.60;48.20
6307;DHT22;3186;54.062;9.962;2023-07-13T10:14:57;25.60;53.10
6307;DHT22;3186;54.062;9.962;2023-07-13T10:17:33;25.80;57.90
6307;DHT22;3186;54.062;9.962;2023-07-13T10:20:05;26.10;54.80
6307;DHT22;3186;54.062;9.962;2023-07-13T10:23:00;26.20;50.60
6307;DHT22;3186;54.062;9.962;2023-07-13T10:25:32;25.90;48.40
6307;DHT22;3186;54.062;9.962;2023-07-13T10:28:09;26.20;46.00
6307;DHT22;3186;54.062;9.962;2023-07-13T10:30:40;26.50;48.40
6307;DHT22;3186;54.062;9.962;2023-07-13T10:33:12;26.20;44.50
6307;DHT22;3186;54.062;9.962;2023-07-13T10:35:41;26.10;38.30
6307;DHT22;3186;54.062;9.962;2023-07-13T10:38:13;26.30;36.20
6307;DHT22;3186;54.062;9.962;2023-07-13T10:40:43;26.40;38.80
6307;DHT22;3186;54.062;9.962;2023-07-13T10:43:22;26.50;32.10
6307;DHT22;3186;54.062;9.962;2023-07-13T10:45:50;26.50;40.60
6307;DHT22;3186;54.062;9.962;2023-07-13T10:48:17;26.50;30.00
6307;DHT22;3186;54.062;9.962;2023-07-13T10:50:46;26.80;33.40
6307;DHT22;3186;54.062;9.962;2023-07-13T11:03:36;27.80;29.60
6307;DHT22;3186;54.062;9.962;2023-07-13T11:11:31;27.40;27.60
6307;DHT22;3186;54.062;9.962;2023-07-13T11:14:00;27.60;23.00
6307;DHT22;3186;54.062;9.962;2023-07-13T11:16:46;27.70;19.60
6307;DHT22;3186;54.062;9.962;2023-07-13T11:27:42;28.40;15.60
6307;DHT22;3186;54.062;9.962;2023-07-13T11:33:18;28.10;3.90
6307;DHT22;3186;54.062;9.962;2023-07-13T11:35:49;28.30;20.40
6307;DHT22;3186;54.062;9.962;2023-07-13T11:38:19;28.70;19.50
6307;DHT22;3186;54.062;9.962;2023-07-13T11:40:47;28.80;18.30
6307;DHT22;3186;54.062;9.962;2023-07-13T11:43:16;28.50;12.30
6307;DHT22;3186;54.062;9.962;2023-07-13T11:45:43;29.00;8.50
6307;DHT22;3186;54.062;9.962;2023-07-13T11:48:29;28.80;6.10
6307;DHT22;3186;54.062;9.962;2023-07-13T11:51:03;29.00;16.80
6307;DHT22;3186;54.062;9.962;2023-07-13T11:53:39;29.40;5.30
6307;DHT22;3186;54.062;9.962;2023-07-13T11:56:06;29.30;5.20
6307;DHT22;3186;54.062;9.962;2023-07-13T11:58:32;29.30;12.40
6307;DHT22;3186;54.062;9.962;2023-07-13T12:01:00;29.00;12.40
6307;DHT22;3186;54.062;9.962;2023-07-13T12:03:28;28.90;13.20
6307;DHT22;3186;54.062;9.962;2023-07-13T12:05:58;28.80;14.00
6307;DHT22;3186;54.062;9.962;2023-07-13T12:11:14;29.60;5.50
6307;DHT22;3186;54.062;9.962;2023-07-13T12:16:29;29.50;3.20
6307;DHT22;3186;54.062;9.962;2023-07-13T12:18:56;29.50;8.20
6307;DHT22;3186;54.062;9.962;2023-07-13T12:21:34;29.50;9.60
6307;DHT22;3186;54.062;9.962;2023-07-13T12:24:02;29.70;7.80
6307;DHT22;3186;54.062;9.962;2023-07-13T12:26:30;29.60;1.90
6307;DHT22;3186;54.062;9.962;2023-07-13T12:28:59;29.60;13.50
6307;DHT22;3186;54.062;9.962;2023-07-13T12:31:36;30.00;4.70
6307;DHT22;3186;54.062;9.962;2023-07-13T12:34:14;29.70;6.20
6307;DHT22;3186;54.062;9.962;2023-07-13T12:36:58;28.90;3.30
6307;DHT22;3186;54.062;9.962;2023-07-13T12:39:35;28.70;1.00
6307;DHT22;3186;54.062;9.962;2023-07-13T12:42:23;29.10;3.90
6307;DHT22;3186;54.062;9.962;2023-07-13T12:48:05;29.10;7.20
6307;DHT22;3186;54.062;9.962;2023-07-13T12:50:38;29.00;2.30
6307;DHT22;3186;54.062;9.962;2023-07-13T12:53:09;28.40;6.90
6307;DHT22;3186;54.062;9.962;2023-07-13T12:55:55;28.40;6.80
6307;DHT22;3186;54.062;9.962;2023-07-13T12:58:32;28.10;6.20
6307;DHT22;3186;54.062;9.962;2023-07-13T13:01:00;28.20;6.00
6307;DHT22;3186;54.062;9.962;2023-07-13T13:03:32;28.20;3.40
6307;DHT22;3186;54.062;9.962;2023-07-13T13:06:04;28.40;1.60
6307;DHT22;3186;54.062;9.962;2023-07-13T13:08:34;28.10;5.20
6307;DHT22;3186;54.062;9.962;2023-07-13T13:11:01;28.30;2.10
6307;DHT22;3186;54.062;9.962;2023-07-13T13:13:27;28.20;2.20
6307;DHT22;3186;54.062;9.962;2023-07-13T13:15:53;28.10;3.60
6307;DHT22;3186;54.062;9.962;2023-07-13T13:18:21;28.00;4.00
6307;DHT22;3186;54.062;9.962;2023-07-13T13:20:49;28.10;5.50
6307;DHT22;3186;54.062;9.962;2023-07-13T13:23:17;28.20;4.30
6307;DHT22;3186;54.062;9.962;2023-07-13T13:25:45;28.10;6.00
6307;DHT22;3186;54.062;9.962;2023-07-13T13:28:16;27.80;3.90
6307;DHT22;3186;54.062;9.962;2023-07-13T13:30:43;27.60;5.30
6307;DHT22;3186;54.062;9.962;2023-07-13T13:33:13;27.50;5.50
6307;DHT22;3186;54.062;9.962;2023-07-13T13:35:41;27.40;6.30
6307;DHT22;3186;54.062;9.962;2023-07-13T13:38:11;27.30;1.00
6307;DHT22;3186;54.062;9.962;2023-07-13T13:40:40;27.30;5.40
6307;DHT22;3186;54.062;9.962;2023-07-13T13:43:26;27.10;5.30
6307;DHT22;3186;54.062;9.962;2023-07-13T13:45:56;26.80;6.70
6307;DHT22;3186;54.062;9.962;2023-07-13T13:48:31;27.00;8.10
6307;DHT22;3186;54.062;9.962;2023-07-13T13:50:58;27.20;4.80
6307;DHT22;3186;54.062;9.962;2023-07-13T13:53:24;27.10;5.40
6307;DHT22;3186;54.062;9.962;2023-07-13T13:55:50;27.00;5.50
6307;DHT22;3186;54.062;9.962;2023-07-13T13:58:18;26.60;7.40
6307;DHT22;3186;54.062;9.962;2023-07-13T14:00:44;26.60;8.50
6307;DHT22;3186;54.062;9.962;2023-07-13T14:03:21;26.70;8.00
6307;DHT22;3186;54.062;9.962;2023-07-13T14:05:48;27.00;7.90
6307;DHT22;3186;54.062;9.962;2023-07-13T14:08:19;26.90;6.80
6307;DHT22;3186;54.062;9.962;2023-07-13T14:10:47;27.00;8.10
6307;DHT22;3186;54.062;9.962;2023-07-13T14:13:17;26.90;6.10
6307;DHT22;3186;54.062;9.962;2023-07-13T14:15:44;26.50;8.10
6307;DHT22;3186;54.062;9.962;2023-07-13T14:18:10;26.50;10.10
6307;DHT22;3186;54.062;9.962;2023-07-13T14:20:37;26.50;9.70
6307;DHT22;3186;54.062;9.962;2023-07-13T14:23:03;26.20;9.00
6307;DHT22;3186;54.062;9.962;2023-07-13T14:25:28;26.50;11.30
6307;DHT22;3186;54.062;9.962;2023-07-13T14:27:58;26.40;10.70
6307;DHT22;3186;54.062;9.962;2023-07-13T14:30:26;26.30;10.40
6307;DHT22;3186;54.062;9.962;2023-07-13T14:35:21;26.30;13.00
6307;DHT22;3186;54.062;9.962;2023-07-13T14:37:47;26.50;14.30
6307;DHT22;3186;54.062;9.962;2023-07-13T14:40:15;26.40;13.60
6307;DHT22;3186;54.062;9.962;2023-07-13T14:42:42;26.50;15.30
6307;DHT22;3186;54.062;9.962;2023-07-13T14:45:18;26.50;13.70
6307;DHT22;3186;54.062;9.962;2023-07-13T14:47:44;26.60;15.00
6307;DHT22;3186;54.062;9.962;2023-07-13T14:50:19;26.70;15.20
6307;DHT22;3186;54.062;9.962;2023-07-13T14:52:46;26.70;15.20
6307;DHT22;3186;54.062;9.962;2023-07-13T14:55:17;26.70;15.50
6307;DHT22;3186;54.062;9.962;2023-07-13T14:57:44;26.60;13.00
6307;DHT22;3186;54.062;9.962;2023-07-13T15:00:16;26.80;14.30
6307;DHT22;3186;54.062;9.962;2023-07-13T15:02:53;26.90;11.70
6307;DHT22;3186;54.062;9.962;2023-07-13T15:05:26;27.10;13.30
6307;DHT22;3186;54.062;9.962;2023-07-13T15:07:53;27.00;14.40
6307;DHT22;3186;54.062;9.962;2023-07-13T15:10:24;27.00;12.70
6307;DHT22;3186;54.062;9.962;2023-07-13T15:12:59;27.00;16.90
6307;DHT22;3186;54.062;9.962;2023-07-13T15:15:28;27.10;15.80
6307;DHT22;3186;54.062;9.962;2023-07-13T15:17:54;27.30;12.90
6307;DHT22;3186;54.062;9.962;2023-07-13T15:22:50;27.10;14.40
6307;DHT22;3186;54.062;9.962;2023-07-13T15:25:18;27.10;14.40
6307;DHT22;3186;54.062;9.962;2023-07-13T15:27:45;27.30;15.10
6307;DHT22;3186;54.062;9.962;2023-07-13T15:30:11;27.40;8.80
6307;DHT22;3186;54.062;9.962;2023-07-13T15:32:37;27.50;11.80
6307;DHT22;3186;54.062;9.962;2023-07-13T15:35:03;27.40;14.50
6307;DHT22;3186;54.062;9.962;2023-07-13T15:37:29;27.50;16.00
6307;DHT22;3186;54.062;9.962;2023-07-13T15:39:55;27.50;8.50
6307;DHT22;3186;54.062;9.962;2023-07-13T15:42:22;27.40;9.20
6307;DHT22;3186;54.062;9.962;2023-07-13T15:44:48;27.40;8.30
6307;DHT22;3186;54.062;9.962;2023-07-13T15:47:15;27.30;5.40
6307;DHT22;3186;54.062;9.962;2023-07-13T15:49:41;27.50;8.70
6307;DHT22;3186;54.062;9.962;2023-07-13T15:52:23;27.50;7.10
6307;DHT22;3186;54.062;9.962;2023-07-13T15:54:49;27.70;12.50
6307;DHT22;3186;54.062;9.962;2023-07-13T15:57:16;27.60;10.70
6307;DHT22;3186;54.062;9.962;2023-07-13T15:59:43;27.50;11.20
6307;DHT22;3186;54.062;9.962;2023-07-13T16:02:16;27.60;9.40
6307;DHT22;3186;54.062;9.962;2023-07-13T16:04:43;27.80;8.60
6307;DHT22;3186;54.062;9.962;2023-07-13T16:07:13;27.80;3.50
6307;DHT22;3186;54.062;9.962;2023-07-13T16:09:40;28.00;10.10
6307;DHT22;3186;54.062;9.962;2023-07-13T16:12:13;27.70;4.60
6307;DHT22;3186;54.062;9.962;2023-07-13T16:14:40;27.70;3.80
6307;DHT22;3186;54.062;9.962;2023-07-13T16:17:10;27.80;9.10
6307;DHT22;3186;54.062;9.962;2023-07-13T16:19:35;27.60;8.10
6307;DHT22;3186;54.062;9.962;2023-07-13T16:22:03;27.80;8.60
6307;DHT22;3186;54.062;9.962;2023-07-13T16:24:31;27.80;8.70
6307;DHT22;3186;54.062;9.962;2023-07-13T16:26:57;28.20;8.20
6307;DHT22;3186;54.062;9.962;2023-07-13T16:29:29;28.20;6.30
6307;DHT22;3186;54.062;9.962;2023-07-13T16:32:04;28.20;5.40
6307;DHT22;3186;54.062;9.962;2023-07-13T16:34:32;28.20;6.40
6307;DHT22;3186;54.062;9.962;2023-07-13T16:36:59;28.10;6.70
6307;DHT22;3186;54.062;9.962;2023-07-13T16:39:26;28.20;4.10
6307;DHT22;3186;54.062;9.962;2023-07-13T16:41:58;28.40;1.00
6307;DHT22;3186;54.062;9.962;2023-07-13T16:44:24;28.40;7.80
6307;DHT22;3186;54.062;9.962;2023-07-13T16:46:52;28.50;4.60
6307;DHT22;3186;54.062;9.962;2023-07-13T16:49:31;28.30;5.80
6307;DHT22;3186;54.062;9.962;2023-07-13T16:51:59;28.50;1.00
6307;DHT22;3186;54.062;9.962;2023-07-13T16:54:34;28.10;6.10
6307;DHT22;3186;54.062;9.962;2023-07-13T16:57:05;28.20;5.80
6307;DHT22;3186;54.062;9.962;2023-07-13T16:59:34;27.70;6.40
6307;DHT22;3186;54.062;9.962;2023-07-13T17:02:02;28.00;5.00
6307;DHT22;3186;54.062;9.962;2023-07-13T17:04:29;28.20;5.80
6307;DHT22;3186;54.062;9.962;2023-07-13T17:06:58;28.30;3.70
6307;DHT22;3186;54.062;9.962;2023-07-13T17:09:24;28.10;5.20